Time;durP1;ratioP1;P1;durP2;ratioP2;P2;SDS_P1;SDS_P2;PMS_P1;PMS_P2;Temp;Humidity;BMP_temperature;BMP_pressure;BME280_temperature;BME280_humidity;BME280_pressure;Samples;Min_cycle;Max_cycle;Signal;HPM_P1;HPM_P2
2022/12/24 00:00:38;;;;;;;37.77;22.27;;;;;;;1.58;90.82;95142.44;1745208;82;21521;-69
2022/12/24 00:03:06;;;;;;;54.97;30.37;;;;;;;1.59;90.06;95142.46;1744980;81;21564;-69
2022/12/24 00:05:33;;;;;;;49.90;29.13;;;;;;;1.60;89.73;95139.42;1745154;82;21127;-69
2022/12/24 00:07:59;;;;;;;42.50;24.40;;;;;;;1.60;89.82;95145.92;1745159;82;21011;-70
2022/12/24 00:10:26;;;;;;;28.70;17.47;;;;;;;1.61;90.09;95145.91;1744834;82;21090;-69
2022/12/24 00:12:52;;;;;;;36.90;22.10;;;;;;;1.59;89.94;95151.56;1745244;81;20995;-69
2022/12/24 00:15:19;;;;;;;25.33;15.83;;;;;;;1.60;89.80;95153.29;1745385;81;21015;-69
2022/12/24 00:17:46;;;;;;;40.57;22.47;;;;;;;1.63;90.04;95153.75;1744913;81;21094;-69
2022/12/24 00:20:12;;;;;;;27.97;18.03;;;;;;;1.70;90.22;95160.75;1744791;82;21066;-69
2022/12/24 00:22:39;;;;;;;30.80;18.37;;;;;;;1.71;89.86;95155.57;1745215;81;21035;-69
2022/12/24 00:25:07;;;;;;;44.97;23.30;;;;;;;1.79;90.36;95167.73;1744936;81;21035;-69
2022/12/24 00:27:33;;;;;;;43.70;27.00;;;;;;;1.83;90.08;95163.02;1745229;81;21051;-69
2022/12/24 00:30:00;;;;;;;46.83;28.20;;;;;;;1.86;90.17;95171.70;1745454;81;20977;-69
2022/12/24 00:32:26;;;;;;;35.70;22.73;;;;;;;1.93;90.05;95163.09;1745126;82;21019;-69
2022/12/24 00:34:53;;;;;;;26.30;16.57;;;;;;;1.93;89.94;95159.19;1745059;82;21513;-69
2022/12/24 00:37:20;;;;;;;33.17;19.53;;;;;;;1.99;89.71;95150.98;1744854;82;21043;-69
2022/12/24 00:39:46;;;;;;;31.07;18.33;;;;;;;2.07;90.43;95144.99;1744935;81;21513;-69
2022/12/24 00:42:13;;;;;;;40.40;21.93;;;;;;;2.13;89.84;95150.66;1745019;82;21031;-69
2022/12/24 00:44:39;;;;;;;38.67;23.93;;;;;;;2.12;89.22;95150.23;1745219;82;21564;-69
2022/12/24 00:47:06;;;;;;;38.00;21.83;;;;;;;2.11;89.41;95140.23;1765559;81;21061;-69
2022/12/24 00:49:33;;;;;;;42.93;24.43;;;;;;;2.21;89.87;95150.27;1772324;81;21137;-70
2022/12/24 00:52:01;;;;;;;51.40;30.27;;;;;;;2.31;90.04;95141.66;1772323;81;21093;-69
2022/12/24 00:54:28;;;;;;;66.73;38.47;;;;;;;2.37;89.74;95149.95;1772394;81;21022;-69
2022/12/24 00:56:55;;;;;;;58.77;36.07;;;;;;;2.41;89.39;95144.33;1772663;81;21034;-69
2022/12/24 00:59:22;;;;;;;57.57;33.03;;;;;;;2.43;89.17;95142.61;1772334;79;21546;-68
2022/12/24 01:01:48;;;;;;;66.60;36.43;;;;;;;2.36;88.76;95135.18;1772605;81;21050;-69
2022/12/24 01:06:59;;;;;;;61.80;37.17;;;;;;;2.43;89.42;95138.70;1772583;81;20974;-69
2022/12/24 01:09:26;;;;;;;56.90;34.10;;;;;;;2.40;88.95;95147.36;1772558;81;20998;-69
2022/12/24 01:11:52;;;;;;;60.60;34.07;;;;;;;2.29;88.47;95146.41;1772337;81;21034;-69
2022/12/24 01:14:19;;;;;;;58.77;32.87;;;;;;;2.25;88.80;95145.54;1772577;81;21570;-69
2022/12/24 01:16:46;;;;;;;60.70;34.03;;;;;;;2.23;88.62;95144.66;1772741;81;21072;-69
2022/12/24 01:19:12;;;;;;;56.93;34.00;;;;;;;2.20;88.66;95141.17;1772321;81;21069;-69
2022/12/24 01:21:39;;;;;;;57.33;33.70;;;;;;;2.15;88.52;95138.09;1772535;81;21002;-69
2022/12/24 01:24:06;;;;;;;56.60;33.03;;;;;;;2.17;88.76;95130.31;1772569;80;21037;-69
2022/12/24 01:26:32;;;;;;;64.97;38.60;;;;;;;2.14;89.30;95121.16;1772770;81;21006;-69
2022/12/24 01:28:59;;;;;;;53.10;31.20;;;;;;;2.11;89.20;95124.61;1772584;81;21006;-69
2022/12/24 01:31:25;;;;;;;72.80;40.33;;;;;;;2.10;88.93;95115.08;1772889;81;21005;-69
2022/12/24 01:33:52;;;;;;;69.10;39.27;;;;;;;2.08;89.57;95118.53;1772780;81;21002;-69
2022/12/24 01:36:19;;;;;;;75.33;42.90;;;;;;;2.08;89.62;95119.84;1772590;81;21052;-69
2022/12/24 01:38:45;;;;;;;79.53;42.43;;;;;;;2.11;89.44;95100.33;1772524;81;21025;-69
2022/12/24 01:44:27;;;;;;;66.73;37.60;;;;;;;2.25;89.74;95093.91;1772324;81;21081;-69
2022/12/24 01:46:59;;;;;;;57.27;34.60;;;;;;;2.23;89.02;95090.42;1772650;81;21029;-69
2022/12/24 01:49:25;;;;;;;53.47;31.70;;;;;;;2.24;89.43;95093.45;1771788;81;21101;-69
2022/12/24 01:52:06;;;;;;;56.67;30.40;;;;;;;2.31;89.78;95094.80;1772633;81;21464;-69
2022/12/24 01:54:41;;;;;;;62.60;36.57;;;;;;;2.36;89.60;95087.88;1744253;81;21065;-69
2022/12/24 01:57:15;;;;;;;65.83;38.00;;;;;;;;;;1772552;81;21022;-69
2022/12/24 01:59:45;;;;;;;58.23;32.13;;;;;;;2.40;89.49;95094.42;1772433;81;21568;-69
2022/12/24 02:02:12;;;;;;;53.93;31.97;;;;;;;2.48;89.57;95093.59;1744895;81;21013;-69
2022/12/24 02:04:56;;;;;;;59.10;32.60;;;;;;;2.50;89.58;95096.20;1772221;81;21093;-69
2022/12/24 02:07:24;;;;;;;65.37;36.03;;;;;;;2.57;89.74;95090.13;1772804;81;20994;-69
2022/12/24 02:09:56;;;;;;;89.77;50.27;;;;;;;2.69;90.06;95103.65;1772183;81;21081;-69
2022/12/24 02:12:24;;;;;;;86.57;49.43;;;;;;;2.72;89.67;95099.34;1744538;81;20966;-69
2022/12/24 02:14:52;;;;;;;81.20;46.00;;;;;;;2.76;89.44;95094.55;1772395;81;20990;-69
2022/12/24 02:17:29;;;;;;;78.23;44.13;;;;;;;2.70;88.96;95076.31;1772511;81;21009;-69
2022/12/24 02:20:55;;;;;;;71.70;42.50;;;;;;;2.65;88.66;95074.12;1772320;81;21104;-69
2022/12/24 02:23:54;;;;;;;69.77;41.47;;;;;;;2.65;89.14;95060.24;1772367;81;21073;-69
2022/12/24 02:26:43;;;;;;;76.00;42.73;;;;;;;2.62;89.36;95047.19;1772540;81;21026;-69
2022/12/24 02:29:56;;;;;;;65.37;38.67;;;;;;;2.62;89.10;95057.60;1772400;81;21030;-69
2022/12/24 02:32:46;;;;;;;60.77;34.77;;;;;;;2.64;89.56;95057.18;1738268;82;20987;-69
2022/12/24 02:35:16;;;;;;;55.47;33.70;;;;;;;;;;1766921;81;21034;-69
2022/12/24 02:37:51;;;;;;;64.23;38.57;;;;;;;2.60;88.93;95058.92;1772336;81;20998;-69
2022/12/24 02:40:41;;;;;;;66.13;38.13;;;;;;;2.55;89.03;95054.13;1770798;81;21049;-68
2022/12/24 02:43:16;;;;;;;60.60;35.57;;;;;;;2.50;88.96;95052.80;1772120;81;21041;-68
2022/12/24 02:45:47;;;;;;;63.10;35.90;;;;;;;2.41;89.20;95049.29;1772370;81;21014;-68
2022/12/24 02:48:16;;;;;;;49.37;29.67;;;;;;;2.42;89.44;95052.31;1772477;81;21082;-68
2022/12/24 02:51:00;;;;;;;59.50;35.63;;;;;;;2.44;89.91;95059.27;1772286;81;21065;-68
2022/12/24 02:53:27;;;;;;;54.77;32.83;;;;;;;2.45;90.32;95054.52;1772260;81;21018;-69
2022/12/24 02:56:04;;;;;;;60.23;35.03;;;;;;;2.46;90.23;95054.95;1772342;81;21073;-69
2022/12/24 02:59:19;;;;;;;58.30;35.10;;;;;;;2.47;90.16;95048.89;1772945;81;21033;-69
2022/12/24 03:02:18;;;;;;;;;;;;;;;2.52;90.37;95058.00;1762361;81;21061;-69
2022/12/24 03:04:53;;;;;;;56.03;32.80;;;;;;;2.56;90.60;95052.81;1740780;82;20374;-69
2022/12/24 03:07:33;;;;;;;55.90;33.23;;;;;;;2.58;90.45;95052.39;1771653;81;21057;-69
2022/12/24 03:10:37;;;;;;;56.87;34.40;;;;;;;2.65;91.08;95056.34;1772263;81;21030;-69
2022/12/24 03:13:12;;;;;;;68.22;37.63;;;;;;;2.70;91.72;95055.92;1772436;81;20986;-69
2022/12/24 03:15:40;;;;;;;65.67;37.97;;;;;;;2.73;91.31;95054.61;1772435;81;21102;-69
2022/12/24 03:18:11;;;;;;;63.90;36.67;;;;;;;2.79;91.37;95058.09;1772588;81;21102;-69
2022/12/24 03:20:43;;;;;;;60.20;35.67;;;;;;;2.77;91.44;95055.04;1772538;81;21453;-69
2022/12/24 03:23:10;;;;;;;60.17;35.87;;;;;;;2.79;91.03;95058.52;1772651;81;21440;-68
2022/12/24 03:25:43;;;;;;;55.07;33.33;;;;;;;2.82;91.13;95057.22;1744382;81;21571;-69
2022/12/24 03:28:13;;;;;;;51.83;31.87;;;;;;;2.83;90.88;95046.39;1772421;79;21523;-69
2022/12/24 03:30:42;;;;;;;51.67;31.40;;;;;;;2.88;91.01;95054.65;1772728;81;21037;-68
2022/12/24 03:33:12;;;;;;;54.17;31.87;;;;;;;2.93;91.29;95052.92;1772507;81;21018;-69
2022/12/24 03:35:39;;;;;;;43.33;27.57;;;;;;;2.95;91.01;95048.59;1772252;81;21452;-69
2022/12/24 03:38:06;;;;;;;48.60;30.27;;;;;;;2.98;91.10;95055.11;1772601;81;21631;-69
2022/12/24 03:40:32;;;;;;;63.77;36.20;;;;;;;3.02;90.89;95058.58;1772457;81;21487;-69
2022/12/24 03:42:59;;;;;;;57.03;33.93;;;;;;;3.09;91.33;95062.07;1772589;81;21484;-69
2022/12/24 03:45:26;;;;;;;57.53;34.33;;;;;;;3.14;91.16;95053.83;1772488;81;21038;-69
2022/12/24 03:47:53;;;;;;;50.67;32.37;;;;;;;3.19;91.49;95058.16;1772414;81;21133;-69
2022/12/24 03:50:19;;;;;;;56.27;32.03;;;;;;;3.26;91.34;95049.93;1772701;81;21029;-69
2022/12/24 03:52:46;;;;;;;55.77;34.37;;;;;;;3.21;90.44;95047.31;1772161;81;21096;-69
2022/12/24 03:55:13;;;;;;;49.73;30.70;;;;;;;3.26;91.09;95052.53;1772347;81;21101;-69
2022/12/24 03:57:39;;;;;;;55.57;32.97;;;;;;;3.31;90.92;95046.89;1772642;81;21014;-69
2022/12/24 04:00:08;;;;;;;59.97;34.67;;;;;;;3.26;90.46;95043.41;1772597;81;21105;-68
2022/12/24 04:02:41;;;;;;;52.63;32.97;;;;;;;3.31;90.86;95046.03;1772480;81;21539;-69
2022/12/24 04:05:15;;;;;;;55.07;33.57;;;;;;;3.31;90.21;95040.81;1772414;81;21057;-68
2022/12/24 04:07:42;;;;;;;52.63;32.57;;;;;;;3.23;89.81;95031.24;1772580;81;21029;-69
2022/12/24 04:10:10;;;;;;;53.70;32.47;;;;;;;3.26;90.31;95035.59;1772476;81;20982;-68
2022/12/24 04:12:37;;;;;;;47.60;30.23;;;;;;;3.23;90.28;95033.85;1772452;81;21041;-68
2022/12/24 04:15:06;;;;;;;53.43;31.80;;;;;;;3.27;90.97;95030.80;1772518;81;21013;-68
2022/12/24 04:17:33;;;;;;;50.70;31.87;;;;;;;3.27;90.36;95038.62;1772577;81;21547;-68
2022/12/24 04:19:59;;;;;;;55.20;32.70;;;;;;;3.25;90.33;95030.81;1772662;81;21040;-68
2022/12/24 04:22:26;;;;;;;53.37;34.50;;;;;;;3.27;90.27;95020.37;1772703;81;21045;-69
2022/12/24 04:24:53;;;;;;;56.97;35.10;;;;;;;3.28;90.67;95019.95;1772491;81;21018;-69
2022/12/24 04:27:19;;;;;;;59.00;36.23;;;;;;;3.24;90.31;95010.80;1772911;81;20978;-68
2022/12/24 04:29:46;;;;;;;62.47;36.33;;;;;;;3.24;90.38;95011.25;1772915;81;21018;-69
2022/12/24 04:32:12;;;;;;;58.17;34.23;;;;;;;3.17;90.14;95007.76;1744637;81;20998;-69
2022/12/24 04:34:39;;;;;;;52.20;33.30;;;;;;;3.11;89.94;95006.91;1772718;81;21077;-69
2022/12/24 04:37:05;;;;;;;46.77;27.77;;;;;;;3.09;90.42;95006.03;1772426;81;21049;-69
2022/12/24 04:39:32;;;;;;;48.93;30.90;;;;;;;3.08;91.04;95018.64;1772688;81;20978;-69
2022/12/24 04:41:59;;;;;;;56.93;34.83;;;;;;;3.08;90.90;95013.43;1772649;81;20993;-69
2022/12/24 04:44:25;;;;;;;54.13;32.60;;;;;;;3.08;91.16;95005.17;1772674;81;21014;-69
2022/12/24 04:46:52;;;;;;;53.57;31.80;;;;;;;3.07;91.06;95012.97;1772640;81;21017;-69
2022/12/24 04:49:18;;;;;;;56.60;36.83;;;;;;;3.00;91.11;95009.52;1772604;81;21512;-69
2022/12/24 04:51:45;;;;;;;58.63;36.67;;;;;;;2.95;90.95;95012.55;1772832;81;21033;-68
2022/12/24 04:54:12;;;;;;;55.97;35.73;;;;;;;2.94;91.04;95022.52;1772370;81;21069;-68
2022/12/24 04:56:38;;;;;;;62.50;36.03;;;;;;;2.91;90.74;95019.47;1772383;81;21026;-68
2022/12/24 04:59:05;;;;;;;57.47;33.70;;;;;;;2.91;90.92;95010.35;1772379;81;21098;-69
2022/12/24 05:01:32;;;;;;;64.33;38.13;;;;;;;2.89;91.66;95016.43;1772713;81;21066;-68
2022/12/24 05:03:59;;;;;;;64.50;37.20;;;;;;;2.87;91.69;94997.31;1772672;81;20998;-68
2022/12/24 05:06:31;;;;;;;61.33;37.97;;;;;;;2.88;91.78;95001.23;1772544;80;21065;-69
2022/12/24 05:09:00;;;;;;;59.30;35.38;;;;;;;2.89;91.64;95008.17;1772844;81;21048;-68
2022/12/24 05:11:27;;;;;;;66.43;37.93;;;;;;;2.93;92.10;95008.63;1772547;81;21061;-69
2022/12/24 05:13:54;;;;;;;55.97;35.37;;;;;;;2.99;92.11;94995.59;1772515;81;21014;-68
2022/12/24 05:16:22;;;;;;;55.23;33.97;;;;;;;2.99;92.77;95000.80;1772596;81;21017;-69
2022/12/24 05:18:48;;;;;;;58.00;34.40;;;;;;;3.02;92.37;95001.23;1772565;81;21010;-69
2022/12/24 05:21:20;;;;;;;55.57;33.20;;;;;;;3.08;92.37;94984.76;1772269;81;21109;-69
2022/12/24 05:26:39;;;;;;;64.43;37.23;;;;;;;3.14;92.23;94979.09;1772589;81;21010;-69
2022/12/24 05:29:08;;;;;;;98.10;49.87;;;;;;;3.17;92.31;94974.31;1772732;81;21013;-69
2022/12/24 05:31:35;;;;;;;110.67;55.77;;;;;;;3.20;92.50;94973.89;1772692;81;21010;-69
2022/12/24 05:34:02;;;;;;;110.07;53.83;;;;;;;3.27;92.58;94967.36;1772805;81;21013;-69
2022/12/24 05:36:29;;;;;;;74.30;43.47;;;;;;;3.23;91.99;94968.67;1772612;81;21033;-68
2022/12/24 05:38:56;;;;;;;64.37;39.60;;;;;;;3.23;92.10;94977.80;1772562;81;21038;-68
2022/12/24 05:41:23;;;;;;;64.60;37.67;;;;;;;3.22;92.07;94967.36;1772222;81;21014;-69
2022/12/24 05:43:50;;;;;;;65.50;38.03;;;;;;;3.18;91.86;94969.11;1772516;81;21131;-68
2022/12/24 05:46:19;;;;;;;57.50;36.80;;;;;;;3.19;91.98;94963.02;1772365;81;21045;-68
2022/12/24 05:48:47;;;;;;;63.23;38.27;;;;;;;3.20;92.21;94966.08;1765013;81;21058;-69
2022/12/24 05:51:20;;;;;;;67.97;40.13;;;;;;;3.19;92.94;94964.76;1764322;81;21050;-69
2022/12/24 05:53:49;;;;;;;73.05;43.85;;;;;;;3.17;92.60;94966.48;1764405;81;21500;-68
2022/12/24 05:56:20;;;;;;;54.13;34.23;;;;;;;3.17;92.89;94958.23;1763945;81;21077;-69
2022/12/24 05:58:48;;;;;;;73.80;43.87;;;;;;;3.19;93.35;94954.33;1764206;81;21045;-69
2022/12/24 06:01:16;;;;;;;64.30;36.83;;;;;;;3.21;92.99;94954.77;1764238;81;21058;-69
2022/12/24 06:03:43;;;;;;;50.97;29.00;;;;;;;3.26;94.46;94958.67;1764163;81;21512;-69
2022/12/24 06:06:14;;;;;;;31.23;19.50;;;;;;;3.38;95.45;94959.11;1764246;81;21018;-69
2022/12/24 06:08:41;;;;;;;23.17;13.37;;;;;;;3.73;98.52;94954.23;1764205;81;20974;-69
2022/12/24 06:11:11;;;;;;;13.70;9.07;;;;;;;3.95;97.51;94964.19;1763777;81;21042;-69
2022/12/24 06:13:39;;;;;;;14.87;8.50;;;;;;;4.12;96.78;94938.45;1764370;81;20990;-69
2022/12/24 06:16:09;;;;;;;20.03;13.80;;;;;;;4.48;99.32;94950.02;1764291;81;21061;-69
2022/12/24 06:18:36;;;;;;;19.80;11.77;;;;;;;4.65;98.20;94941.66;1764172;81;21500;-68
2022/12/24 06:21:05;;;;;;;13.83;9.63;;;;;;;4.81;98.01;94939.80;1764208;81;21002;-68
2022/12/24 06:23:35;;;;;;;6.33;3.17;;;;;;;4.90;97.40;94937.12;1764095;81;21472;-69
2022/12/24 06:26:04;;;;;;;2.07;1.60;;;;;;;5.05;97.80;94928.75;1763910;81;21025;-68
2022/12/24 06:28:35;;;;;;;4.07;2.97;;;;;;;5.44;99.26;94907.89;1764101;81;20988;-68
2022/12/24 06:31:04;;;;;;;4.00;2.83;;;;;;;5.80;99.76;94920.20;1764223;81;21575;-68
2022/12/24 06:33:32;;;;;;;2.93;2.57;;;;;;;6.04;99.04;94912.06;1764270;81;21476;-69
2022/12/24 06:35:59;;;;;;;2.80;2.20;;;;;;;6.17;98.33;94916.71;1764288;81;20990;-68
2022/12/24 06:38:28;;;;;;;1.43;1.30;;;;;;;6.29;97.59;94911.77;1764119;81;21089;-68
2022/12/24 06:40:55;;;;;;;5.43;2.93;;;;;;;6.45;97.00;94913.31;1763964;81;21090;-69
2022/12/24 06:43:22;;;;;;;2.30;1.60;;;;;;;6.61;96.50;94907.86;1764169;81;21034;-69
2022/12/24 06:45:48;;;;;;;5.23;2.10;;;;;;;6.72;95.96;94904.17;1763786;81;21086;-69
2022/12/24 06:48:16;;;;;;;6.50;4.03;;;;;;;6.88;96.12;94906.59;1760369;81;21041;-69
2022/12/24 06:50:42;;;;;;;4.77;3.27;;;;;;;6.93;95.04;94897.75;1763810;81;21027;-69
2022/12/24 06:53:09;;;;;;;4.67;3.10;;;;;;;6.92;94.42;94906.48;1764105;81;21516;-69
2022/12/24 06:55:36;;;;;;;2.90;1.70;;;;;;;7.05;94.42;94920.73;1764054;81;21703;-70
2022/12/24 06:58:03;;;;;;;4.30;2.73;;;;;;;7.03;94.16;94914.22;1764262;81;20999;-69
2022/12/24 07:00:30;;;;;;;3.00;1.87;;;;;;;7.05;94.04;94925.52;1764218;81;21009;-69
2022/12/24 07:02:56;;;;;;;5.20;2.97;;;;;;;7.14;94.23;94928.46;1763821;81;21057;-69
2022/12/24 07:05:23;;;;;;;9.10;7.53;;;;;;;7.22;93.96;94931.82;1764119;81;20986;-69
2022/12/24 07:07:50;;;;;;;4.73;3.37;;;;;;;7.37;93.96;94938.13;1764186;81;21057;-68
2022/12/24 07:10:17;;;;;;;3.97;2.70;;;;;;;7.45;93.70;94931.44;1764231;81;21444;-68
2022/12/24 07:12:45;;;;;;;6.40;5.63;;;;;;;7.48;93.25;94930.52;1764043;81;21045;-68
2022/12/24 07:15:13;;;;;;;6.63;3.03;;;;;;;7.49;93.32;94931.81;1764226;81;21050;-68
2022/12/24 07:17:40;;;;;;;5.47;3.10;;;;;;;7.53;93.30;94946.63;1764404;81;21473;-66
2022/12/24 07:20:12;;;;;;;5.33;3.08;;;;;;;7.55;93.34;94943.50;1763973;81;20998;-68
2022/12/24 07:22:38;;;;;;;2.77;2.10;;;;;;;7.58;93.15;94952.66;1764241;81;21046;-68
2022/12/24 07:25:06;;;;;;;3.70;2.92;;;;;;;7.60;92.87;94965.75;1764408;81;21023;-68
2022/12/24 07:27:33;;;;;;;3.10;2.50;;;;;;;7.63;92.67;94967.45;1764035;81;21010;-69
2022/12/24 07:29:59;;;;;;;2.83;2.35;;;;;;;7.65;92.43;94978.34;1764317;81;20986;-69
2022/12/24 07:32:26;;;;;;;1.87;1.60;;;;;;;7.69;92.44;94980.49;1764127;81;21022;-69
2022/12/24 07:34:52;;;;;;;24.40;9.23;;;;;;;7.67;92.51;94984.45;1764144;81;21014;-68
2022/12/24 07:37:19;;;;;;;7.62;3.15;;;;;;;7.67;92.55;94979.19;1764173;81;21022;-69
2022/12/24 07:39:45;;;;;;;3.85;2.60;;;;;;;7.64;92.33;94975.31;1764206;81;20955;-69
2022/12/24 07:42:12;;;;;;;4.07;2.70;;;;;;;7.63;92.50;94970.08;1763996;81;21002;-69
2022/12/24 07:44:39;;;;;;;2.30;1.87;;;;;;;7.62;92.30;94973.16;1764291;81;20966;-69
2022/12/24 07:47:05;;;;;;;3.40;2.20;;;;;;;7.62;92.12;94966.59;1764190;81;21002;-69
2022/12/24 07:49:32;;;;;;;5.58;4.05;;;;;;;7.65;92.03;94970.47;1764106;81;21535;-69
2022/12/24 07:51:58;;;;;;;2.90;2.00;;;;;;;7.68;91.80;94977.42;1764397;81;20994;-69
2022/12/24 07:54:25;;;;;;;2.95;1.62;;;;;;;7.70;91.73;94984.84;1764229;81;20982;-69
2022/12/24 07:56:51;;;;;;;5.12;3.30;;;;;;;7.71;91.08;94985.25;1763975;81;21074;-68
2022/12/24 07:59:19;;;;;;;3.10;1.70;;;;;;;7.69;90.98;94985.75;1763868;81;21109;-68
2022/12/24 08:01:45;;;;;;;17.17;12.20;;;;;;;7.67;90.92;94986.21;1763839;81;20994;-68
2022/12/24 08:04:12;;;;;;;5.47;4.20;;;;;;;7.63;90.68;94986.69;1764156;81;21015;-69
2022/12/24 08:06:39;;;;;;;5.53;4.28;;;;;;;7.61;90.81;94974.06;1764223;81;20959;-69
2022/12/24 08:09:06;;;;;;;2.95;2.30;;;;;;;7.60;90.72;94976.25;1763917;81;21022;-69
2022/12/24 08:11:33;;;;;;;2.42;1.47;;;;;;;7.58;90.92;94970.15;1764156;81;21025;-69
2022/12/24 08:13:59;;;;;;;3.05;2.02;;;;;;;7.56;90.43;94979.84;1764390;81;21038;-69
2022/12/24 08:16:26;;;;;;;6.33;3.33;;;;;;;7.61;89.62;94971.44;1763859;81;21047;-69
2022/12/24 08:18:53;;;;;;;3.10;2.17;;;;;;;7.60;89.82;94965.75;1764149;81;21010;-69
2022/12/24 08:21:19;;;;;;;3.83;2.35;;;;;;;7.62;89.87;94973.16;1764355;81;20982;-69
2022/12/24 08:23:46;;;;;;;3.42;2.40;;;;;;;7.61;89.80;94979.31;1763694;81;20987;-69
2022/12/24 08:26:13;;;;;;;2.77;2.00;;;;;;;7.55;89.61;94980.26;1763861;81;21057;-69
2022/12/24 08:28:40;;;;;;;8.67;4.40;;;;;;;7.58;90.06;94995.09;1764336;81;21015;-69
2022/12/24 08:31:07;;;;;;;4.60;3.20;;;;;;;7.57;89.89;95012.61;1763670;81;21026;-69
2022/12/24 08:33:34;;;;;;;3.70;2.95;;;;;;;7.59;89.87;95012.14;1763853;81;21545;-69
2022/12/24 08:36:02;;;;;;;4.73;3.53;;;;;;;7.59;89.93;95018.70;1734488;81;21033;-69
2022/12/24 08:38:28;;;;;;;8.43;3.72;;;;;;;7.58;89.96;95021.34;1764074;81;21037;-69
2022/12/24 08:40:55;;;;;;;14.35;7.35;;;;;;;7.58;89.98;95004.28;1764044;81;21050;-69
2022/12/24 08:43:24;;;;;;;17.82;7.33;;;;;;;7.59;90.02;95015.22;1763858;81;20986;-68
2022/12/24 08:45:50;;;;;;;7.15;3.85;;;;;;;7.61;90.00;95017.80;1764056;81;21182;-69
2022/12/24 08:48:17;;;;;;;9.60;7.23;;;;;;;7.63;89.94;95012.95;1764260;81;21507;-69
2022/12/24 08:50:44;;;;;;;6.85;4.58;;;;;;;7.64;89.62;95017.33;1764450;81;21010;-68
2022/12/24 08:53:11;;;;;;;9.83;6.67;;;;;;;7.64;89.47;95008.14;1764406;81;21051;-68
2022/12/24 08:55:38;;;;;;;11.57;6.78;;;;;;;7.65;89.67;95003.29;1764195;81;21026;-69
2022/12/24 08:58:05;;;;;;;10.30;6.67;;;;;;;7.68;89.63;95002.38;1764056;81;21489;-69
2022/12/24 09:00:32;;;;;;;11.48;6.12;;;;;;;7.70;89.50;95007.16;1764406;81;20978;-69
2022/12/24 09:02:59;;;;;;;5.40;4.60;;;;;;;7.71;89.46;95022.01;1764301;81;21042;-69
2022/12/24 09:05:26;;;;;;;6.92;5.10;;;;;;;7.70;89.51;95013.27;1764199;81;21050;-69
2022/12/24 09:07:52;;;;;;;9.00;6.03;;;;;;;7.71;89.49;95015.02;1764425;80;20982;-69
2022/12/24 09:10:19;;;;;;;9.10;5.45;;;;;;;7.73;89.36;95013.21;1764243;81;21539;-69
2022/12/24 09:12:46;;;;;;;9.35;6.00;;;;;;;7.74;89.37;95023.30;1764325;81;21382;-69
2022/12/24 09:15:13;;;;;;;10.63;7.70;;;;;;;7.73;89.17;95018.46;1764196;81;20999;-69
2022/12/24 09:17:41;;;;;;;12.20;7.95;;;;;;;7.74;89.26;95032.48;1764274;81;21496;-69
2022/12/24 09:20:09;;;;;;;8.35;6.15;;;;;;;7.73;89.24;95035.98;1764088;81;21022;-69
2022/12/24 09:22:38;;;;;;;8.53;5.42;;;;;;;7.73;89.05;95039.47;1764415;81;21014;-69
2022/12/24 09:25:07;;;;;;;7.25;5.25;;;;;;;7.71;89.03;95049.16;1764202;81;20979;-69
2022/12/24 09:27:34;;;;;;;11.15;6.40;;;;;;;7.76;89.03;95039.45;1764453;81;21505;-69
2022/12/24 09:44:42;;;;;;;12.07;9.48;;;;;;;8.64;86.11;95029.55;1860181;77;23396;-68
2022/12/24 09:47:14;;;;;;;10.82;7.72;;;;;;;8.29;85.83;95051.65;1832504;78;20999;-68
2022/12/24 09:49:44;;;;;;;9.20;8.30;;;;;;;8.06;86.48;95038.92;1814553;78;21083;-68
2022/12/24 09:52:15;;;;;;;8.53;7.05;;;;;;;7.95;86.95;95050.49;1832444;78;21027;-68
2022/12/24 09:54:50;;;;;;;8.93;7.45;;;;;;;7.86;87.14;95061.17;1832066;78;21000;-68
2022/12/24 09:57:25;;;;;;;10.00;7.67;;;;;;;7.71;87.63;95066.65;1831625;78;21500;-68
2022/12/24 09:59:52;;;;;;;9.30;7.15;;;;;;;7.66;87.78;95064.13;1831953;78;21055;-68
2022/12/24 10:02:19;;;;;;;11.75;7.35;;;;;;;7.57;88.13;95078.70;1832425;78;20988;-68
2022/12/24 10:04:48;;;;;;;10.43;9.10;;;;;;;7.55;88.06;95063.41;1832367;78;21035;-68
2022/12/24 10:07:50;;;;;;;11.95;8.65;;;;;;;7.53;88.19;95075.27;1831962;78;20991;-68
2022/12/24 10:10:43;;;;;;;54.08;31.35;;;;;;;7.54;88.46;95063.00;1832421;78;21441;-68
2022/12/24 10:13:41;;;;;;;12.05;8.45;;;;;;;7.53;88.60;95070.02;1762509;81;21057;-68
2022/12/24 10:16:16;;;;;;;11.45;7.65;;;;;;;7.53;88.72;95069.13;1819807;78;21059;-68
2022/12/24 10:19:16;;;;;;;12.47;9.90;;;;;;;7.55;88.94;95059.47;1831684;78;20995;-68
2022/12/24 10:21:57;;;;;;;10.25;7.87;;;;;;;7.56;89.04;95060.77;1832256;78;21492;-68
2022/12/24 10:25:00;;;;;;;10.23;6.83;;;;;;;7.59;88.58;95071.22;1832328;78;20991;-68
2022/12/24 10:27:32;;;;;;;9.15;6.92;;;;;;;7.64;88.42;95066.35;1832287;78;21012;-68
2022/12/24 10:30:03;;;;;;;10.33;7.43;;;;;;;7.66;88.49;95053.63;1831657;78;21039;-68
2022/12/24 10:32:33;;;;;;;10.55;8.50;;;;;;;7.73;88.60;95051.29;1832504;78;21004;-68
2022/12/24 10:35:17;;;;;;;10.17;7.97;;;;;;;7.78;88.51;95062.59;1832345;78;20980;-68
2022/12/24 10:37:47;;;;;;;11.80;9.35;;;;;;;7.80;88.28;95069.14;1810653;78;21004;-68
2022/12/24 10:40:28;;;;;;;9.80;7.85;;;;;;;7.75;88.16;95065.27;1827546;78;21469;-68
2022/12/24 10:42:55;;;;;;;9.03;7.30;;;;;;;7.72;87.85;95074.52;1833610;78;21039;-68
2022/12/24 10:45:26;;;;;;;9.08;7.72;;;;;;;7.70;87.96;95061.85;1834910;78;21024;-68
2022/12/24 10:47:57;;;;;;;8.88;7.15;;;;;;;7.66;87.79;95079.88;1835269;78;20948;-68
2022/12/24 10:50:35;;;;;;;8.78;7.17;;;;;;;7.64;87.70;95079.48;1835169;78;20980;-68
2022/12/24 10:53:38;;;;;;;9.03;7.08;;;;;;;7.62;87.88;95070.75;1835297;78;21465;-68
2022/12/24 10:56:09;;;;;;;10.03;7.25;;;;;;;7.57;87.96;95074.30;1835296;78;21051;-68
2022/12/24 10:58:36;;;;;;;11.80;8.70;;;;;;;7.59;88.17;95073.84;1835198;78;20999;-68
2022/12/24 11:01:04;;;;;;;12.00;9.73;;;;;;;7.62;88.26;95070.30;1835053;78;20992;-68
2022/12/24 11:03:35;;;;;;;8.28;6.40;;;;;;;7.64;88.35;95072.46;1834992;78;21000;-68
2022/12/24 11:06:19;;;;;;;11.57;8.03;;;;;;;7.69;87.98;95076.34;1835345;78;20988;-68
2022/12/24 11:08:45;;;;;;;15.43;10.58;;;;;;;7.72;87.82;95073.20;1834793;78;21023;-68
2022/12/24 11:11:19;;;;;;;10.03;6.92;;;;;;;7.74;87.78;95081.93;1835242;78;20952;-68
2022/12/24 11:13:51;;;;;;;10.65;8.53;;;;;;;7.76;87.71;95091.08;1835517;78;21059;-68
2022/12/24 11:16:31;;;;;;;12.28;8.13;;;;;;;7.77;87.16;95100.70;1835267;78;21039;-68
2022/12/24 11:19:01;;;;;;;14.10;11.08;;;;;;;7.74;87.04;95087.63;1834835;78;21516;-68
2022/12/24 11:21:31;;;;;;;10.70;8.00;;;;;;;7.74;87.06;95097.69;1835342;78;20987;-68
2022/12/24 11:24:25;;;;;;;9.90;7.85;;;;;;;7.71;86.95;95097.74;1834963;78;21023;-68
2022/12/24 11:26:51;;;;;;;12.70;8.25;;;;;;;7.66;86.72;95095.63;1835336;78;21015;-68
2022/12/24 11:29:25;;;;;;;12.40;9.38;;;;;;;7.68;86.51;95099.08;1834928;78;21012;-68
2022/12/24 11:32:15;;;;;;;10.85;7.58;;;;;;;7.71;86.76;95107.35;1835305;78;21023;-68
2022/12/24 11:34:43;;;;;;;11.57;8.73;;;;;;;7.66;86.35;95112.70;1833703;78;21539;-67
2022/12/24 11:37:20;;;;;;;14.23;10.35;;;;;;;7.64;86.58;95114.47;1835279;78;21043;-68
2022/12/24 11:39:51;;;;;;;12.82;8.18;;;;;;;7.59;86.69;95117.61;1835116;78;21035;-68
2022/12/24 11:42:37;;;;;;;10.98;7.80;;;;;;;7.53;86.94;95126.45;1835005;78;21504;-68
2022/12/24 11:45:19;;;;;;;10.13;7.70;;;;;;;7.48;86.88;95125.63;1831248;78;20999;-68
2022/12/24 11:47:46;;;;;;;11.73;7.83;;;;;;;7.44;87.02;95129.65;1830847;78;21032;-68
2022/12/24 11:50:37;;;;;;;13.93;9.78;;;;;;;7.41;87.23;95128.36;1826769;78;21003;-68
2022/12/24 11:53:20;;;;;;;13.55;9.70;;;;;;;7.43;87.30;95124.81;1831509;78;21026;-68
2022/12/24 11:56:00;;;;;;;14.18;8.98;;;;;;;7.44;87.40;95132.27;1831837;78;21500;-68
2022/12/24 11:58:48;;;;;;;11.68;8.75;;;;;;;7.44;87.45;95128.34;1831386;78;21023;-68
2022/12/24 12:01:29;;;;;;;14.00;8.55;;;;;;;7.45;87.33;95130.92;1831662;78;21011;-68
2022/12/24 12:04:04;;;;;;;10.80;7.87;;;;;;;7.45;87.19;95130.92;1831483;78;21063;-68
2022/12/24 12:07:12;;;;;;;12.95;8.58;;;;;;;7.41;87.19;95133.19;1831589;78;21010;-68
2022/12/24 12:09:43;;;;;;;13.13;8.95;;;;;;;7.42;87.31;95130.11;1792914;78;21031;-68
2022/12/24 12:12:18;;;;;;;11.05;7.90;;;;;;;7.40;87.17;95134.05;1831497;78;21022;-68